Time;durP1;ratioP1;P1;durP2;ratioP2;P2;SDS_P1;SDS_P2;PMS_P1;PMS_P2;Temp;Humidity;BMP_temperature;BMP_pressure;BME280_temperature;BME280_humidity;BME280_pressure;Samples;Min_cycle;Max_cycle;Signal;HPM_P1;HPM_P2
2023/03/23 00:02:32;;;;;;;9.18;6.40;;;13.70;99.90;;;;;;6045739;23;20015;-76
2023/03/23 00:05:06;;;;;;;15.63;10.25;;;12.10;99.90;;;;;;6047768;23;20018;-76
2023/03/23 00:07:33;;;;;;;13.90;10.07;;;12.50;99.90;;;;;;6047726;23;20309;-76
2023/03/23 00:10:02;;;;;;;18.55;13.93;;;13.10;99.90;;;;;;6047441;23;20317;-75
2023/03/23 00:12:33;;;;;;;17.48;13.52;;;12.80;99.90;;;;;;6045989;23;20011;-77
2023/03/23 00:15:12;;;;;;;20.15;15.13;;;13.70;99.90;;;;;;6048084;23;20011;-74
2023/03/23 00:17:40;;;;;;;21.70;15.77;;;13.80;99.90;;;;;;6047078;23;20018;-77
2023/03/23 00:20:11;;;;;;;26.33;17.73;;;12.50;99.90;;;;;;6066693;23;20270;-75
2023/03/23 00:22:37;;;;;;;24.10;17.88;;;12.80;99.90;;;;;;6130563;23;20508;-77
2023/03/23 00:25:08;;;;;;;26.80;18.30;;;13.30;99.90;;;;;;6131582;23;20017;-76
2023/03/23 00:27:40;;;;;;;22.88;16.27;;;13.80;99.90;;;;;;6083142;23;20009;-75
2023/03/23 00:30:06;;;;;;;25.48;17.52;;;14.40;99.90;;;;;;6105617;23;20106;-75
2023/03/23 00:32:32;;;;;;;22.63;18.05;;;14.60;99.90;;;;;;6105724;23;20056;-74
2023/03/23 00:35:00;;;;;;;21.40;16.75;;;12.50;99.90;;;;;;6105918;23;20030;-76
2023/03/23 00:41:20;;;;;;;19.55;15.10;;;12.90;99.90;;;;;;6095985;23;20068;-74
2023/03/23 00:43:45;;;;;;;20.55;15.40;;;14.70;99.90;;;;;;6104513;23;20196;-76
2023/03/23 00:46:16;;;;;;;24.85;15.80;;;14.80;99.90;;;;;;6103600;23;20021;-76
2023/03/23 00:48:44;;;;;;;22.15;15.82;;;13.10;99.90;;;;;;6103435;23;20064;-77
2023/03/23 01:01:57;;;;;;;18.15;14.10;;;14.90;99.90;;;;;;5988410;23;20027;-78
2023/03/23 01:04:31;;;;;;;15.50;10.27;;;13.10;99.90;;;;;;6041136;23;20011;-76
2023/03/23 01:07:08;;;;;;;9.68;6.95;;;13.30;99.90;;;;;;6105049;23;20021;-77
2023/03/23 01:09:53;;;;;;;7.78;5.47;;;12.30;99.90;;;;;;6090720;23;20074;-76
2023/03/23 01:12:19;;;;;;;4.63;3.03;;;12.00;99.90;;;;;;6047348;23;20159;-78
2023/03/23 01:14:45;;;;;;;4.55;3.13;;;13.80;99.90;;;;;;6070267;23;20073;-76
2023/03/23 01:17:10;;;;;;;4.05;2.80;;;12.00;99.90;;;;;;6046867;23;20029;-76
2023/03/23 01:19:37;;;;;;;6.82;3.00;;;13.60;99.90;;;;;;6070538;23;20019;-78
2023/03/23 01:22:03;;;;;;;4.53;3.33;;;13.70;99.90;;;;;;6069809;23;20030;-76
2023/03/23 01:24:30;;;;;;;6.75;3.00;;;14.10;99.90;;;;;;6071391;23;20011;-75
2023/03/23 01:26:56;;;;;;;5.25;3.50;;;13.80;99.90;;;;;;6070629;23;20010;-76
2023/03/23 01:29:21;;;;;;;5.53;3.67;;;13.90;99.90;;;;;;6071113;23;20017;-75
2023/03/23 01:31:47;;;;;;;5.00;3.60;;;14.10;99.90;;;;;;6047553;23;20015;-76
2023/03/23 01:34:13;;;;;;;4.55;4.00;;;12.40;99.90;;;;;;6071504;23;20019;-75
2023/03/23 01:36:53;;;;;;;8.02;4.75;;;13.00;99.90;;;;;;5091362;27;20431;-73
2023/03/23 01:39:18;;;;;;;8.82;5.20;;;13.60;99.90;;;;;;5079499;28;20346;-76
2023/03/23 01:41:44;;;;;;;8.40;5.70;;;13.60;99.90;;;;;;5076806;28;20135;-78
2023/03/23 01:44:21;;;;;;;8.35;6.47;;;14.30;99.90;;;;;;5056588;28;20097;-77
2023/03/23 01:46:47;;;;;;;9.55;7.75;;;12.20;99.90;;;;;;5109480;28;20063;-76
2023/03/23 01:49:23;;;;;;;15.27;9.63;;;12.10;99.90;;;;;;5070288;28;20033;-75
2023/03/23 01:52:30;;;;;;;15.55;9.68;;;11.90;99.90;;;;;;5090187;28;20070;-75
2023/03/23 01:54:57;;;;;;;19.27;10.60;;;14.20;99.90;;;;;;5110042;28;20123;-76
2023/03/23 01:57:26;;;;;;;14.18;9.57;;;13.60;99.90;;;;;;5085262;28;20024;-76
2023/03/23 02:00:47;;;;;;;16.25;9.60;;;12.10;99.90;;;;;;5072509;28;20216;-78
2023/03/23 02:03:15;;;;;;;9.38;8.23;;;14.30;99.90;;;;;;5067021;28;20037;-77
2023/03/23 02:05:42;;;;;;;12.75;8.30;;;12.60;99.90;;;;;;5068324;28;20043;-75
2023/03/23 02:08:10;;;;;;;12.48;8.40;;;13.10;99.90;;;;;;5093145;28;20036;-76
2023/03/23 02:10:37;;;;;;;11.50;8.40;;;14.90;99.90;;;;;;5110159;28;20059;-73
2023/03/23 02:13:05;;;;;;;16.50;8.32;;;12.20;99.90;;;;;;5075698;28;20040;-74
2023/03/23 02:16:09;;;;;;;12.88;7.20;;;14.70;99.90;;;;;;5062851;28;20095;-78
2023/03/23 02:18:57;;;;;;;10.63;7.38;;;12.20;99.90;;;;;;5072249;28;20458;-77
2023/03/23 02:24:57;;;;;;;10.82;6.40;;;14.20;99.90;;;;;;5078802;28;20028;-77
2023/03/23 02:27:26;;;;;;;11.18;6.57;;;12.50;99.90;;;;;;5089157;28;20282;-76
2023/03/23 02:30:15;;;;;;;9.15;6.40;;;14.60;99.90;;;;;;5086040;28;20107;-78
2023/03/23 02:32:54;;;;;;;9.90;5.80;;;14.20;99.90;;;;;;5080650;28;20026;-77
2023/03/23 02:35:24;;;;;;;6.88;5.57;;;14.10;99.90;;;;;;5088844;28;20051;-76
2023/03/23 02:37:56;;;;;;;12.15;6.50;;;13.60;99.90;;;;;;5072804;28;20094;-75
2023/03/23 02:40:39;;;;;;;10.25;5.95;;;13.50;99.90;;;;;;5089472;28;20029;-77
2023/03/23 02:43:10;;;;;;;10.20;5.82;;;14.70;99.90;;;;;;5101880;28;20036;-77
2023/03/23 02:45:37;;;;;;;9.68;6.28;;;14.70;99.90;;;;;;5082191;28;20242;-75
2023/03/23 02:48:05;;;;;;;7.93;5.20;;;13.30;99.90;;;;;;5069798;28;20198;-77
2023/03/23 02:50:33;;;;;;;6.38;5.00;;;13.10;99.90;;;;;;5057642;28;20651;-75
2023/03/23 02:52:59;;;;;;;7.05;4.88;;;13.10;99.90;;;;;;5073538;28;20366;-78
2023/03/23 02:55:28;;;;;;;10.20;5.40;;;13.60;99.90;;;;;;5061845;28;20160;-79
2023/03/23 02:57:55;;;;;;;7.80;5.55;;;14.40;99.90;;;;;;5083784;28;20033;-78
2023/03/23 03:00:21;;;;;;;9.40;5.00;;;13.60;99.90;;;;;;5068543;28;20035;-74
2023/03/23 03:02:54;;;;;;;9.63;5.18;;;12.20;99.90;;;;;;5062787;28;20562;-77
2023/03/23 03:05:32;;;;;;;7.07;4.60;;;12.10;99.90;;;;;;5098940;28;20131;-79
2023/03/23 03:08:20;;;;;;;5.78;4.38;;;12.80;99.90;;;;;;5095339;28;20214;-78
2023/03/23 03:11:13;;;;;;;6.38;4.63;;;13.90;99.90;;;;;;5060429;28;20114;-75
2023/03/23 03:14:17;;;;;;;8.60;4.78;;;13.90;99.90;;;;;;5073648;28;20044;-77
2023/03/23 03:17:07;;;;;;;9.68;4.40;;;12.30;99.90;;;;;;5095253;28;20394;-74
2023/03/23 03:19:38;;;;;;;9.65;4.93;;;14.00;99.90;;;;;;5078176;28;20036;-79
2023/03/23 03:22:04;;;;;;;6.68;4.20;;;12.90;99.90;;;;;;5078375;28;20070;-76
2023/03/23 03:24:32;;;;;;;8.85;4.07;;;11.90;99.90;;;;;;5046670;28;20396;-77
2023/03/23 03:27:00;;;;;;;5.95;3.80;;;12.80;99.90;;;;;;5065872;28;20247;-75
2023/03/23 03:29:33;;;;;;;9.02;4.65;;;13.00;99.90;;;;;;5058659;28;20044;-75
2023/03/23 03:32:05;;;;;;;10.20;4.25;;;12.00;99.90;;;;;;5065535;28;20195;-74
2023/03/23 03:34:32;;;;;;;7.03;4.18;;;13.60;99.90;;;;;;5069556;28;20071;-77
2023/03/23 03:37:36;;;;;;;8.65;3.92;;;15.30;99.90;;;;;;5068815;28;20037;-78
2023/03/23 03:40:15;;;;;;;5.77;4.27;;;11.60;99.90;;;;;;4977918;28;20042;-77
2023/03/23 03:42:45;;;;;;;11.13;4.00;;;12.60;99.90;;;;;;5011906;28;20045;-76
2023/03/23 03:45:17;;;;;;;7.07;4.63;;;13.30;99.90;;;;;;4964860;28;20309;-75
2023/03/23 03:47:43;;;;;;;7.43;4.45;;;13.60;99.90;;;;;;4979943;28;20045;-75
2023/03/23 03:50:09;;;;;;;7.15;4.45;;;15.00;99.90;;;;;;5057733;28;20055;-75
2023/03/23 03:52:38;;;;;;;7.13;3.78;;;13.90;99.90;;;;;;5064187;28;20103;-75
2023/03/23 03:55:06;;;;;;;6.93;3.58;;;13.00;99.90;;;;;;5095233;28;20040;-79
2023/03/23 03:57:34;;;;;;;7.78;5.10;;;13.80;99.90;;;;;;5087179;28;20043;-76
2023/03/23 04:00:00;;;;;;;6.90;4.60;;;14.10;99.90;;;;;;5039531;28;20064;-78
2023/03/23 04:02:26;;;;;;;8.35;4.53;;;12.30;99.90;;;;;;5050903;28;20201;-76
2023/03/23 04:04:54;;;;;;;10.15;5.15;;;14.60;99.90;;;;;;5077527;28;20032;-77
2023/03/23 04:07:21;;;;;;;7.28;4.18;;;11.80;99.90;;;;;;5060817;28;20102;-77
2023/03/23 04:09:47;;;;;;;6.22;3.78;;;12.30;99.90;;;;;;5077183;28;20067;-78
2023/03/23 04:12:16;;;;;;;9.73;4.28;;;12.40;99.90;;;;;;5075678;28;20058;-76
2023/03/23 04:14:42;;;;;;;6.53;4.28;;;14.60;99.90;;;;;;5055143;28;20041;-76
2023/03/23 04:17:09;;;;;;;9.10;5.60;;;13.00;99.90;;;;;;5049217;28;20031;-77
2023/03/23 04:19:38;;;;;;;6.35;4.00;;;11.90;99.90;;;;;;5059383;28;20029;-78
2023/03/23 04:22:12;;;;;;;5.68;3.05;;;12.00;99.90;;;;;;5071786;28;20036;-76
2023/03/23 04:24:38;;;;;;;6.50;2.45;;;13.90;99.90;;;;;;5044557;28;20036;-78
2023/03/23 04:27:57;;;;;;;3.78;2.30;;;12.80;99.90;;;;;;5045791;28;20060;-78
2023/03/23 04:30:32;;;;;;;6.78;1.30;;;13.30;99.90;;;;;;5044802;28;20111;-77
2023/03/23 04:33:01;;;;;;;1.50;1.10;;;12.20;99.90;;;;;;5058110;28;20503;-76
2023/03/23 04:35:28;;;;;;;2.47;1.10;;;13.10;99.90;;;;;;5087900;28;20048;-77
2023/03/23 04:37:55;;;;;;;3.13;1.40;;;12.90;99.90;;;;;;5072262;28;20044;-78
2023/03/23 04:40:22;;;;;;;1.60;1.40;;;13.30;99.90;;;;;;5057517;28;20196;-77
2023/03/23 04:42:48;;;;;;;2.92;1.55;;;13.20;99.90;;;;;;5056343;28;20029;-80
2023/03/23 04:45:21;;;;;;;2.80;1.63;;;13.30;99.90;;;;;;5076936;28;20079;-77
2023/03/23 04:47:57;;;;;;;2.65;1.70;;;11.60;99.90;;;;;;5059553;28;20047;-79
2023/03/23 04:50:26;;;;;;;4.60;2.15;;;13.70;99.90;;;;;;5069937;28;20040;-77
2023/03/23 04:52:53;;;;;;;5.82;2.47;;;11.20;99.90;;;;;;5061338;28;20048;-76
2023/03/23 04:55:20;;;;;;;3.70;1.90;;;13.70;99.90;;;;;;5086212;28;20075;-76
2023/03/23 04:57:47;;;;;;;3.83;1.92;;;13.60;99.90;;;;;;5059848;28;20029;-79
2023/03/23 05:00:16;;;;;;;4.95;2.00;;;11.50;99.90;;;;;;5078383;28;20032;-78
2023/03/23 05:02:46;;;;;;;5.07;1.95;;;13.40;99.90;;;;;;5087768;28;20402;-76
2023/03/23 05:05:14;;;;;;;9.45;2.15;;;11.90;99.90;;;;;;5064514;28;20205;-76
2023/03/23 05:07:41;;;;;;;7.60;2.70;;;11.30;99.90;;;;;;5096429;28;20032;-74
2023/03/23 05:10:09;;;;;;;8.52;2.47;;;11.30;99.90;;;;;;5049991;28;20045;-74
2023/03/23 05:12:34;;;;;;;6.15;2.55;;;13.50;99.90;;;;;;5085307;28;20040;-80
2023/03/23 05:15:00;;;;;;;4.88;2.30;;;12.10;99.90;;;;;;5047356;28;20139;-75
2023/03/23 05:17:27;;;;;;;8.65;3.70;;;11.20;99.90;;;;;;5096580;28;20041;-77
2023/03/23 05:19:53;;;;;;;7.35;3.20;;;12.00;99.90;;;;;;5067328;28;20242;-75
2023/03/23 05:22:20;;;;;;;11.07;4.15;;;13.10;99.90;;;;;;5077919;28;20073;-77
2023/03/23 05:24:47;;;;;;;11.70;4.75;;;13.40;99.90;;;;;;5059965;28;20107;-76
2023/03/23 05:27:17;;;;;;;10.30;4.75;;;13.90;99.90;;;;;;5076585;28;20028;-74
2023/03/23 05:29:43;;;;;;;9.05;4.68;;;14.10;99.90;;;;;;5072285;28;20267;-74
2023/03/23 05:32:09;;;;;;;11.05;4.85;;;11.80;99.90;;;;;;5078523;28;20033;-76
2023/03/23 05:34:35;;;;;;;10.45;4.32;;;14.00;99.90;;;;;;5051981;28;20069;-77
2023/03/23 05:37:02;;;;;;;15.73;5.10;;;11.80;99.90;;;;;;5077434;28;20048;-79
2023/03/23 05:39:29;;;;;;;10.15;4.38;;;13.80;99.90;;;;;;5071042;28;20027;-76
2023/03/23 05:41:55;;;;;;;10.80;4.50;;;11.50;99.90;;;;;;5073972;28;20304;-80
2023/03/23 05:44:21;;;;;;;13.30;3.92;;;11.60;99.90;;;;;;5079283;28;20025;-79
2023/03/23 05:46:47;;;;;;;8.88;3.63;;;14.20;99.90;;;;;;5052608;28;20111;-73
2023/03/23 05:49:15;;;;;;;12.15;4.10;;;12.20;99.90;;;;;;5074062;28;20032;-75
2023/03/23 05:51:43;;;;;;;11.20;3.50;;;14.20;99.90;;;;;;5063857;28;20036;-75
2023/03/23 05:54:10;;;;;;;13.57;3.38;;;13.60;99.90;;;;;;5067935;28;20151;-76
2023/03/23 06:00:32;;;;;;;12.13;3.08;;;12.10;99.90;;;;;;5052882;28;20078;-78
2023/03/23 06:03:23;;;;;;;17.20;3.95;;;12.30;99.90;;;;;;5056994;28;20033;-74
2023/03/23 06:05:50;;;;;;;19.35;3.67;;;13.10;99.90;;;;;;5062895;28;20032;-77
2023/03/23 06:08:16;;;;;;;12.77;3.35;;;11.90;99.90;;;;;;5063425;28;20053;-74
2023/03/23 06:10:42;;;;;;;15.63;3.90;;;13.90;99.90;;;;;;5068989;28;20036;-75
2023/03/23 06:13:07;;;;;;;12.50;2.80;;;12.40;99.90;;;;;;5051726;28;20029;-75
2023/03/23 06:15:33;;;;;;;12.70;4.03;;;11.60;99.90;;;;;;5049321;28;20211;-75
2023/03/23 06:18:00;;;;;;;13.63;3.88;;;13.50;99.90;;;;;;5065546;28;20032;-76
2023/03/23 06:20:26;;;;;;;16.70;3.38;;;12.40;99.90;;;;;;5077070;28;20025;-74
2023/03/23 06:22:52;;;;;;;18.35;4.10;;;13.20;99.90;;;;;;5067041;28;20032;-76
2023/03/23 06:25:19;;;;;;;17.63;3.85;;;11.90;99.90;;;;;;5083593;28;20040;-77
2023/03/23 06:27:46;;;;;;;15.48;4.00;;;12.20;99.90;;;;;;5097821;28;20243;-75
2023/03/23 06:30:14;;;;;;;13.10;3.00;;;11.90;99.90;;;;;;5048588;28;20041;-74
2023/03/23 06:32:41;;;;;;;14.48;3.15;;;13.80;99.90;;;;;;5051452;28;20101;-76
2023/03/23 06:35:09;;;;;;;14.18;2.95;;;13.20;99.90;;;;;;5044240;28;20099;-76
2023/03/23 06:37:36;;;;;;;18.90;3.53;;;13.20;99.90;;;;;;5040575;28;20219;-77
2023/03/23 06:40:06;;;;;;;16.58;3.58;;;11.90;99.90;;;;;;5082303;28;20366;-73
2023/03/23 06:42:33;;;;;;;16.92;3.70;;;13.30;99.90;;;;;;5049193;28;20041;-75
2023/03/23 06:45:00;;;;;;;11.90;3.63;;;14.00;99.90;;;;;;5048897;28;20071;-74
2023/03/23 06:47:29;;;;;;;11.93;3.28;;;11.80;99.90;;;;;;5097828;28;20108;-74
2023/03/23 06:49:55;;;;;;;15.23;3.10;;;13.70;99.90;;;;;;5044502;28;20082;-77
2023/03/23 06:52:22;;;;;;;11.18;2.70;;;13.70;99.90;;;;;;5080085;28;20331;-74
2023/03/23 06:54:49;;;;;;;9.65;2.80;;;13.20;99.90;;;;;;5052283;28;20277;-77
2023/03/23 06:58:06;;;;;;;8.55;2.65;;;13.30;99.90;;;;;;5053503;28;20068;-76
2023/03/23 07:00:33;;;;;;;6.45;1.95;;;11.50;99.90;;;;;;5039998;28;20036;-75
2023/03/23 07:02:59;;;;;;;10.63;2.85;;;13.20;99.90;;;;;;5079515;28;20095;-77
2023/03/23 07:05:25;;;;;;;7.35;1.95;;;12.10;99.90;;;;;;5067197;28;20098;-76
2023/03/23 07:07:51;;;;;;;8.00;2.10;;;11.50;99.90;;;;;;5076384;28;20029;-73
2023/03/23 07:10:17;;;;;;;10.02;3.22;;;11.30;99.90;;;;;;5068587;28;20041;-75
2023/03/23 07:12:43;;;;;;;10.18;2.13;;;12.70;99.90;;;;;;5079334;28;20032;-75
2023/03/23 07:18:52;;;;;;;10.63;2.72;;;11.30;99.90;;;;;;5074023;28;20034;-76
2023/03/23 07:22:12;;;;;;;9.15;2.95;;;12.40;99.90;;;;;;5078594;28;20028;-74
2023/03/23 07:24:47;;;;;;;9.02;2.92;;;11.90;99.90;;;;;;5097028;28;20046;-75
2023/03/23 07:27:13;;;;;;;10.95;3.10;;;11.70;99.90;;;;;;5050491;28;20091;-75
2023/03/23 07:30:29;;;;;;;13.05;2.63;;;12.40;99.90;;;;;;5043285;28;20048;-74
2023/03/23 07:33:13;;;;;;;11.98;2.83;;;11.90;99.90;;;;;;5029002;28;20043;-76
2023/03/23 07:35:39;;;;;;;9.43;2.85;;;12.90;99.90;;;;;;5053068;28;20036;-73
2023/03/23 07:39:07;;;;;;;15.98;3.80;;;13.60;99.90;;;;;;5075915;28;20040;-79
2023/03/23 07:42:15;;;;;;;19.13;3.58;;;12.90;99.90;;;;;;5070450;28;20154;-75
2023/03/23 07:45:05;;;;;;;19.88;4.38;;;13.70;99.90;;;;;;5044029;28;20095;-77
2023/03/23 07:47:54;;;;;;;14.75;3.92;;;15.20;99.90;;;;;;5054566;28;20056;-78
2023/03/23 07:50:24;;;;;;;14.15;4.45;;;14.60;99.90;;;;;;5064868;28;20031;-75
2023/03/23 07:53:01;;;;;;;18.70;4.45;;;12.50;99.90;;;;;;5042881;28;20078;-76
2023/03/23 07:55:28;;;;;;;17.33;4.60;;;12.10;99.90;;;;;;5067062;28;20284;-75
2023/03/23 07:57:54;;;;;;;22.73;5.20;;;14.50;99.90;;;;;;5060553;28;20258;-76
2023/03/23 08:00:32;;;;;;;17.38;4.28;;;13.30;99.90;;;;;;5049368;28;20035;-77
2023/03/23 08:03:04;;;;;;;16.05;3.75;;;14.40;99.90;;;;;;5081297;28;20093;-74
2023/03/23 08:06:39;;;;;;;20.48;4.43;;;14.50;99.90;;;;;;5062894;28;20037;-78
2023/03/23 08:09:08;;;;;;;21.27;4.07;;;13.30;99.90;;;;;;5059418;28;20047;-78
2023/03/23 08:12:27;;;;;;;19.25;3.65;;;13.30;99.90;;;;;;5079221;28;20380;-74
2023/03/23 08:14:59;;;;;;;20.92;5.07;;;12.70;99.90;;;;;;5033024;28;20052;-75
2023/03/23 08:17:24;;;;;;;18.15;4.07;;;11.80;99.90;;;;;;5050457;28;20041;-73
2023/03/23 08:19:52;;;;;;;21.88;4.18;;;13.40;99.90;;;;;;5042326;28;20070;-78
2023/03/23 08:23:29;;;;;;;;;;;;;;;;;;;;;
2023/03/23 08:26:37;;;;;;;19.98;3.88;;;13.00;99.90;;;;;;4996023;28;20042;-79
2023/03/23 08:29:24;;;;;;;18.90;4.65;;;12.60;99.90;;;;;;4975709;28;20093;-77
2023/03/23 08:31:53;;;;;;;19.65;4.07;;;13.20;99.90;;;;;;4963837;28;20046;-72
2023/03/23 08:34:22;;;;;;;17.25;4.18;;;13.30;99.90;;;;;;4980339;28;20044;-76
2023/03/23 08:37:21;;;;;;;19.50;3.65;;;14.60;99.90;;;;;;5031713;28;20053;-75
2023/03/23 08:44:03;;;;;;;19.67;4.03;;;14.60;99.90;;;;;;5053644;28;20033;-78
2023/03/23 08:46:34;;;;;;;18.92;3.80;;;13.90;99.90;;;;;;5043642;28;20029;-73
2023/03/23 08:49:00;;;;;;;16.95;4.13;;;12.70;99.90;;;;;;5018797;28;20041;-78
2023/03/23 08:51:29;;;;;;;21.50;4.07;;;14.60;99.90;;;;;;5026999;28;20041;-75
2023/03/23 08:54:26;;;;;;;18.02;3.70;;;14.70;99.90;;;;;;5040019;28;20052;-75
2023/03/23 08:57:34;;;;;;;20.48;4.07;;;13.20;99.90;;;;;;5041199;28;20355;-79
2023/03/23 09:00:00;;;;;;;13.45;3.70;;;14.50;99.90;;;;;;5026172;28;20044;-74
2023/03/23 09:02:27;;;;;;;16.55;3.67;;;14.00;99.90;;;;;;5029459;28;20047;-75
2023/03/23 09:05:07;;;;;;;11.88;3.15;;;15.50;99.90;;;;;;5018790;28;20041;-76
2023/03/23 09:07:33;;;;;;;16.70;3.92;;;14.00;99.90;;;;;;5038902;28;20040;-78
2023/03/23 09:10:24;;;;;;;17.67;4.20;;;15.50;99.90;;;;;;5036719;28;20104;-75
2023/03/23 09:12:52;;;;;;;18.88;4.45;;;15.30;99.90;;;;;;5026628;28;20033;-75
2023/03/23 09:15:43;;;;;;;17.27;3.33;;;15.30;99.90;;;;;;5029732;28;20042;-75
2023/03/23 09:18:21;;;;;;;21.52;4.28;;;16.70;99.90;;;;;;5047183;28;20071;-76
2023/03/23 09:20:49;;;;;;;22.20;5.00;;;14.80;99.90;;;;;;5059953;28;20252;-73
2023/03/23 09:27:15;;;;;;;17.07;3.93;;;14.70;99.90;;;;;;4991714;28;20276;-78
2023/03/23 09:30:00;;;;;;;16.65;3.97;;;14.70;99.90;;;;;;4976865;28;20134;-74
2023/03/23 09:32:54;;;;;;;;;;;;;;;;;;;;;
2023/03/23 09:36:13;;;;;;;20.45;4.00;;;14.20;99.90;;;;;;5078535;28;19916;-76
2023/03/23 09:43:38;;;;;;;20.95;3.90;;;14.80;99.90;;;;;;5048783;28;20036;-74
2023/03/23 09:46:51;;;;;;;12.80;3.40;;;15.10;99.90;;;;;;5040887;28;20044;-74
2023/03/23 09:49:34;;;;;;;15.70;3.97;;;15.90;99.90;;;;;;5009420;28;20251;-79
2023/03/23 09:52:15;;;;;;;18.90;4.32;;;15.90;99.90;;;;;;5023097;28;20112;-76
2023/03/23 09:54:53;;;;;;;14.32;3.25;;;14.70;99.90;;;;;;5039440;28;20428;-79
2023/03/23 09:57:29;;;;;;;14.80;3.58;;;16.10;99.90;;;;;;5036308;28;20038;-75
2023/03/23 10:00:35;;;;;;;20.00;4.32;;;16.40;99.90;;;;;;5025488;28;20040;-76
2023/03/23 10:03:39;;;;;;;;;;;16.50;99.90;;;;;;5050908;28;20036;-79
2023/03/23 10:06:17;;;;;;;16.13;4.20;;;16.20;99.90;;;;;;5028274;28;19913;-76
2023/03/23 10:08:51;;;;;;;12.75;3.10;;;16.50;99.90;;;;;;5027968;28;20033;-76
2023/03/23 10:11:38;;;;;;;15.93;3.80;;;16.70;99.90;;;;;;5047100;28;20048;-76
2023/03/23 10:14:28;;;;;;;18.65;4.03;;;16.40;99.90;;;;;;5027329;28;20100;-76
2023/03/23 10:17:36;;;;;;;15.38;3.97;;;16.40;99.90;;;;;;5063313;28;20044;-77
2023/03/23 10:20:25;;;;;;;16.50;3.85;;;16.60;99.90;;;;;;5046807;28;20375;-76
2023/03/23 10:23:25;;;;;;;12.75;3.40;;;16.60;99.90;;;;;;5042596;28;20048;-77
2023/03/23 10:37:32;;;;;;;15.95;3.80;;;16.20;99.90;;;;;;4903613;29;20075;-78
2023/03/23 10:40:03;;;;;;;14.52;3.20;;;16.70;99.90;;;;;;4971849;28;20044;-72
2023/03/23 10:42:50;;;;;;;14.93;3.80;;;16.70;99.90;;;;;;5040506;28;20052;-75
2023/03/23 10:45:29;;;;;;;14.70;3.55;;;16.60;99.90;;;;;;5042328;28;20204;-77
2023/03/23 10:55:22;;;;;;;11.43;2.97;;;17.10;99.90;;;;;;4979777;28;20052;-78
2023/03/23 10:58:11;;;;;;;14.32;3.40;;;17.00;99.90;;;;;;4964016;28;20070;-77
2023/03/23 11:00:55;;;;;;;15.80;4.00;;;16.80;99.90;;;;;;4964322;28;20077;-74
2023/03/23 11:03:49;;;;;;;;;;;;;;;;;;;;;
2023/03/23 11:06:42;;;;;;;13.10;3.72;;;15.70;99.90;;;;;;5001014;28;20068;-76
2023/03/23 11:09:38;;;;;;;10.68;3.53;;;15.80;99.90;;;;;;5004545;28;20029;-77
2023/03/23 11:12:27;;;;;;;13.13;3.58;;;15.70;99.90;;;;;;5002489;28;20114;-75
2023/03/23 11:15:39;;;;;;;10.95;2.85;;;15.90;99.90;;;;;;5013252;28;20090;-76
2023/03/23 11:18:36;;;;;;;;;;;;;;;;;;;;;
2023/03/23 11:24:02;;;;;;;12.48;3.50;;;16.80;99.90;;;;;;4961511;28;20088;-77
2023/03/23 11:26:31;;;;;;;13.88;3.05;;;16.80;99.90;;;;;;5007716;28;20065;-74
2023/03/23 11:29:24;;;;;;;13.52;2.65;;;16.50;99.90;;;;;;5047470;28;20353;-77
2023/03/23 11:32:33;;;;;;;14.15;3.40;;;15.80;99.90;;;;;;5047845;28;20032;-77
2023/03/23 11:38:40;;;;;;;10.27;3.25;;;15.70;99.90;;;;;;5085504;28;20450;-77
2023/03/23 11:45:23;;;;;;;12.10;2.75;;;15.40;99.90;;;;;;5076637;28;20319;-75
2023/03/23 11:48:32;;;;;;;11.90;2.90;;;15.30;99.90;;;;;;5083963;28;20095;-78
2023/03/23 11:51:47;;;;;;;12.15;2.55;;;14.10;99.90;;;;;;5082617;28;20078;-77
2023/03/23 12:01:56;;;;;;;11.05;2.35;;;15.20;99.90;;;;;;4976305;28;20096;-78
2023/03/23 12:05:21;;;;;;;13.70;3.08;;;16.60;99.90;;;;;;5079901;28;20094;-77
2023/03/23 12:09:16;;;;;;;13.82;2.65;;;16.40;99.90;;;;;;5078151;28;20031;-77
2023/03/23 12:11:59;;;;;;;8.10;2.63;;;15.80;99.90;;;;;;5053428;28;20103;-77
2023/03/23 12:14:51;;;;;;;8.90;2.38;;;17.10;99.90;;;;;;5052815;28;20025;-78
2023/03/23 12:25:25;;;;;;;10.10;2.35;;;17.20;78.20;;;;;;5001129;28;20046;-76
2023/03/23 12:35:56;;;;;;;10.90;2.75;;;15.90;75.00;;;;;;5108992;28;20032;-77
2023/03/23 12:38:39;;;;;;;7.90;2.00;;;17.00;78.50;;;;;;5075704;28;20052;-78
2023/03/23 12:41:39;;;;;;;10.27;2.53;;;17.40;51.40;;;;;;5070331;28;20035;-77
2023/03/23 12:44:45;;;;;;;7.43;2.03;;;15.60;21.50;;;;;;5100580;28;20211;-76
2023/03/23 12:48:09;;;;;;;9.02;2.38;;;16.40;60.30;;;;;;5074528;28;20032;-77
2023/03/23 12:58:11;;;;;;;6.97;2.22;;;15.70;59.70;;;;;;5051312;28;20215;-77
2023/03/23 13:00:49;;;;;;;7.23;2.37;;;15.10;85.70;;;;;;5053462;28;20384;-75
2023/03/23 13:03:53;;;;;;;14.60;3.17;;;16.50;65.20;;;;;;5064620;28;20275;-74
2023/03/23 13:06:42;;;;;;;7.65;2.22;;;16.40;68.90;;;;;;5098480;28;20074;-76
2023/03/23 13:09:50;;;;;;;7.57;2.72;;;16.50;54.10;;;;;;5088752;28;20318;-77
2023/03/23 13:12:39;;;;;;;9.23;2.63;;;17.20;53.30;;;;;;5057903;28;20054;-77
2023/03/23 13:15:49;;;;;;;10.68;2.50;;;17.00;90.50;;;;;;5089334;28;20108;-79
2023/03/23 13:18:52;;;;;;;9.43;2.17;;;16.90;45.80;;;;;;5004523;28;20281;-80
2023/03/23 13:22:11;;;;;;;6.90;1.90;;;16.80;32.50;;;;;;5088508;28;20214;-76
2023/03/23 13:24:48;;;;;;;12.68;2.13;;;16.10;26.60;;;;;;5072071;28;20307;-76
2023/03/23 13:27:37;;;;;;;8.30;2.13;;;15.80;38.50;;;;;;5094881;28;20050;-77
2023/03/23 13:30:44;;;;;;;11.18;2.30;;;15.80;66.60;;;;;;5058549;28;20045;-77
2023/03/23 13:34:05;;;;;;;9.13;2.13;;;16.00;94.00;;;;;;5080358;28;20016;-74
2023/03/23 13:41:38;;;;;;;8.93;3.00;;;14.90;99.90;;;;;;5045806;28;20103;-76
2023/03/23 13:44:59;;;;;;;7.30;2.00;;;16.20;99.90;;;;;;5014475;28;20056;-78
2023/03/23 13:51:47;;;;;;;16.27;2.97;;;17.10;88.90;;;;;;5033607;28;20090;-79
2023/03/23 13:58:00;;;;;;;10.98;2.88;;;16.60;91.00;;;;;;5049147;28;20121;-75
2023/03/23 14:04:16;;;;;;;9.93;2.90;;;16.70;99.90;;;;;;5049955;28;20086;-76
2023/03/23 14:07:28;;;;;;;10.85;3.08;;;16.60;91.30;;;;;;5016347;28;20296;-76
2023/03/23 14:10:07;;;;;;;13.02;2.72;;;17.40;95.90;;;;;;5100871;28;20111;-78
2023/03/23 14:12:40;;;;;;;10.30;2.78;;;16.30;31.30;;;;;;5056264;28;20036;-79
2023/03/23 14:16:04;;;;;;;;;;;;;;;;;;;;;
2023/03/23 14:18:37;;;;;;;6.55;2.38;;;16.40;37.60;;;;;;5129077;28;20035;-75
2023/03/23 14:21:11;;;;;;;9.48;2.78;;;17.60;25.90;;;;;;5099701;28;20052;-78
2023/03/23 14:23:39;;;;;;;12.55;2.80;;;17.60;8.30;;;;;;5079496;28;20042;-75
2023/03/23 14:26:46;;;;;;;14.52;3.35;;;17.70;22.20;;;;;;5131926;28;20031;-76
2023/03/23 14:29:32;;;;;;;10.25;2.65;;;17.00;8.10;;;;;;5080423;28;20053;-77
2023/03/23 14:32:12;;;;;;;10.23;2.50;;;16.30;37.40;;;;;;5103365;28;20036;-78
2023/03/23 14:34:56;;;;;;;9.25;2.45;;;16.40;71.80;;;;;;5084217;28;20035;-79
2023/03/23 14:37:42;;;;;;;;;;;;;;;;;;;;;
2023/03/23 14:40:49;;;;;;;11.05;3.00;;;16.90;94.90;;;;;;5062044;28;20051;-80
2023/03/23 14:46:49;;;;;;;9.13;2.20;;;16.30;87.70;;;;;;5025148;28;20110;-77
2023/03/23 14:49:35;;;;;;;11.40;3.47;;;16.30;94.40;;;;;;5111187;28;20036;-77
2023/03/23 14:55:52;;;;;;;12.30;2.55;;;16.10;95.80;;;;;;5093948;28;20040;-78
2023/03/23 14:58:23;;;;;;;9.35;2.10;;;16.60;99.90;;;;;;5063410;28;20041;-77
2023/03/23 15:00:58;;;;;;;6.35;2.17;;;15.80;99.90;;;;;;5097494;28;20032;-78
2023/03/23 15:03:39;;;;;;;9.32;2.10;;;15.00;99.90;;;;;;5096410;28;20052;-80
2023/03/23 15:06:22;;;;;;;10.18;2.20;;;16.80;99.90;;;;;;5080837;28;20044;-78
2023/03/23 15:09:16;;;;;;;8.43;2.40;;;15.70;91.00;;;;;;5056716;28;20047;-80
2023/03/23 15:12:04;;;;;;;9.60;2.90;;;16.10;94.90;;;;;;5095571;28;20032;-78
2023/03/23 15:14:47;;;;;;;10.32;2.72;;;15.60;96.50;;;;;;5060049;28;20103;-77
2023/03/23 15:17:32;;;;;;;15.13;3.33;;;15.40;97.90;;;;;;5079747;28;20068;-77
2023/03/23 15:20:10;;;;;;;10.23;2.10;;;15.40;99.90;;;;;;5074790;28;20041;-79
2023/03/23 15:22:54;;;;;;;9.48;2.00;;;15.30;93.70;;;;;;5075538;28;20039;-79
2023/03/23 15:25:29;;;;;;;6.80;1.80;;;15.30;94.40;;;;;;5079879;28;20024;-80
2023/03/23 15:28:36;;;;;;;7.63;1.70;;;15.20;99.90;;;;;;5092488;28;20090;-79
2023/03/23 15:35:25;;;;;;;7.72;2.67;;;15.00;99.90;;;;;;5062673;28;20245;-78
2023/03/23 15:41:55;;;;;;;9.43;2.17;;;13.70;95.70;;;;;;5100477;28;20477;-78
2023/03/23 15:44:33;;;;;;;6.57;1.80;;;15.00;99.50;;;;;;5081807;28;20035;-79
2023/03/23 15:47:18;;;;;;;7.15;1.95;;;14.90;93.50;;;;;;5069960;28;20223;-79
2023/03/23 15:49:45;;;;;;;8.05;1.83;;;14.90;72.30;;;;;;5084090;28;20067;-79
2023/03/23 15:52:12;;;;;;;7.75;1.92;;;14.90;96.40;;;;;;5084726;28;20035;-78
2023/03/23 15:54:45;;;;;;;10.02;2.25;;;14.80;66.30;;;;;;5086419;28;20527;-79
2023/03/23 15:57:11;;;;;;;15.25;2.47;;;14.80;73.10;;;;;;5097668;28;20032;-80
2023/03/23 15:59:37;;;;;;;6.95;2.17;;;14.80;90.90;;;;;;5070531;28;20035;-81